sensor_id;sensor_type;location;lat;lon;timestamp;pressure;altitude;pressure_sealevel;temperature;humidity
20015;BME280;61787;42.022;23.078;2023-06-14T00:00:24;96400.63;;;19.84;100.00
20015;BME280;61787;42.022;23.078;2023-06-14T00:01:26;96398.63;;;19.88;100.00
20015;BME280;61787;42.022;23.078;2023-06-14T00:02:28;96394.75;;;19.89;100.00
20015;BME280;61787;42.022;23.078;2023-06-14T00:03:30;96393.16;;;19.92;100.00
20015;BME280;61787;42.022;23.078;2023-06-14T00:04:33;96393.16;;;19.92;100.00
20015;BME280;61787;42.022;23.078;2023-06-14T00:05:36;96406.38;;;19.93;100.00
20015;BME280;61787;42.022;23.078;2023-06-14T00:06:44;96400.91;;;19.93;100.00
20015;BME280;61787;42.022;23.078;2023-06-14T00:07:50;96401.28;;;19.95;100.00
20015;BME280;61787;42.022;23.078;2023-06-14T00:08:54;96400.09;;;19.96;100.00
20015;BME280;61787;42.022;23.078;2023-06-14T00:09:56;96400.19;;;19.89;100.00
20015;BME280;61787;42.022;23.078;2023-06-14T00:10:57;96399.84;;;19.80;100.00
20015;BME280;61787;42.022;23.078;2023-06-14T00:11:59;96395.66;;;19.72;100.00
20015;BME280;61787;42.022;23.078;2023-06-14T00:13:04;96401.94;;;19.66;100.00
20015;BME280;61787;42.022;23.078;2023-06-14T00:14:06;96387.19;;;19.63;100.00
20015;BME280;61787;42.022;23.078;2023-06-14T00:15:07;96384.88;;;19.62;100.00
20015;BME280;61787;42.022;23.078;2023-06-14T00:16:11;96379.09;;;19.56;100.00
20015;BME280;61787;42.022;23.078;2023-06-14T00:17:13;96389.56;;;19.57;100.00
20015;BME280;61787;42.022;23.078;2023-06-14T00:18:17;96386.47;;;19.59;100.00
20015;BME280;61787;42.022;23.078;2023-06-14T00:19:19;96382.94;;;19.62;100.00
20015;BME280;61787;42.022;23.078;2023-06-14T00:20:21;96383.22;;;19.71;100.00
20015;BME280;61787;42.022;23.078;2023-06-14T00:21:22;96385.13;;;19.78;100.00
20015;BME280;61787;42.022;23.078;2023-06-14T00:22:24;96381.66;;;19.74;100.00
20015;BME280;61787;42.022;23.078;2023-06-14T00:23:26;96384.06;;;19.68;100.00
20015;BME280;61787;42.022;23.078;2023-06-14T00:24:28;96382.94;;;19.62;100.00
20015;BME280;61787;42.022;23.078;2023-06-14T00:25:30;96375.59;;;19.59;100.00
20015;BME280;61787;42.022;23.078;2023-06-14T00:26:32;96376.03;;;19.54;100.00
20015;BME280;61787;42.022;23.078;2023-06-14T00:27:33;96374.09;;;19.51;100.00
20015;BME280;61787;42.022;23.078;2023-06-14T00:28:35;96374.09;;;19.51;100.00
20015;BME280;61787;42.022;23.078;2023-06-14T00:29:37;96379.50;;;19.54;100.00
20015;BME280;61787;42.022;23.078;2023-06-14T00:30:39;96372.06;;;19.62;100.00
20015;BME280;61787;42.022;23.078;2023-06-14T00:31:40;96370.00;;;19.73;100.00
20015;BME280;61787;42.022;23.078;2023-06-14T00:32:43;96376.16;;;19.81;100.00
20015;BME280;61787;42.022;23.078;2023-06-14T00:33:45;96369.88;;;19.87;100.00
20015;BME280;61787;42.022;23.078;2023-06-14T00:34:46;96370.59;;;19.91;100.00
20015;BME280;61787;42.022;23.078;2023-06-14T00:35:48;96373.66;;;19.97;100.00
20015;BME280;61787;42.022;23.078;2023-06-14T00:36:49;96371.72;;;19.97;100.00
20015;BME280;61787;42.022;23.078;2023-06-14T00:37:51;96369.00;;;19.97;100.00
20015;BME280;61787;42.022;23.078;2023-06-14T00:38:53;96373.63;;;20.00;100.00
20015;BME280;61787;42.022;23.078;2023-06-14T00:39:54;96369.72;;;20.01;100.00
20015;BME280;61787;42.022;23.078;2023-06-14T00:40:56;96374.38;;;20.05;100.00
20015;BME280;61787;42.022;23.078;2023-06-14T00:41:58;96371.22;;;20.10;100.00
20015;BME280;61787;42.022;23.078;2023-06-14T00:43:00;96371.94;;;20.14;100.00
20015;BME280;61787;42.022;23.078;2023-06-14T00:44:02;96362.53;;;20.18;100.00
20015;BME280;61787;42.022;23.078;2023-06-14T00:45:04;96367.94;;;20.22;100.00
20015;BME280;61787;42.022;23.078;2023-06-14T00:46:06;96371.88;;;20.21;100.00
20015;BME280;61787;42.022;23.078;2023-06-14T00:47:08;96360.94;;;20.24;100.00
20015;BME280;61787;42.022;23.078;2023-06-14T00:48:10;96361.66;;;20.28;100.00
20015;BME280;61787;42.022;23.078;2023-06-14T00:49:14;96361.63;;;20.32;100.00
20015;BME280;61787;42.022;23.078;2023-06-14T00:50:16;96355.38;;;20.35;100.00
20015;BME280;61787;42.022;23.078;2023-06-14T00:51:18;96357.28;;;20.38;100.00
20015;BME280;61787;42.022;23.078;2023-06-14T00:52:20;96355.34;;;20.38;100.00
20015;BME280;61787;42.022;23.078;2023-06-14T00:53:22;96362.28;;;20.43;100.00
20015;BME280;61787;42.022;23.078;2023-06-14T00:54:24;96353.31;;;20.46;100.00
20015;BME280;61787;42.022;23.078;2023-06-14T00:55:26;96348.22;;;20.48;100.00
20015;BME280;61787;42.022;23.078;2023-06-14T00:56:28;96351.31;;;20.50;100.00
20015;BME280;61787;42.022;23.078;2023-06-14T00:57:30;96354.38;;;20.52;100.00
20015;BME280;61787;42.022;23.078;2023-06-14T00:58:32;96352.03;;;20.54;100.00
20015;BME280;61787;42.022;23.078;2023-06-14T00:59:40;96355.91;;;20.57;99.91
20015;BME280;61787;42.022;23.078;2023-06-14T01:00:43;96352.75;;;20.58;99.10
20015;BME280;61787;42.022;23.078;2023-06-14T01:01:45;96346.53;;;20.58;99.08
20015;BME280;61787;42.022;23.078;2023-06-14T01:02:47;96353.59;;;20.55;98.49
20015;BME280;61787;42.022;23.078;2023-06-14T01:03:51;96353.97;;;20.54;98.67
20015;BME280;61787;42.022;23.078;2023-06-14T01:04:53;96350.13;;;20.51;98.12
20015;BME280;61787;42.022;23.078;2023-06-14T01:06:15;96350.53;;;20.50;98.27
20015;BME280;61787;42.022;23.078;2023-06-14T01:09:36;96347.53;;;20.40;98.41
20015;BME280;61787;42.022;23.078;2023-06-14T01:14:10;96348.41;;;20.34;98.62
20015;BME280;61787;42.022;23.078;2023-06-14T01:15:14;96343.34;;;20.32;98.85
20015;BME280;61787;42.022;23.078;2023-06-14T01:16:16;96347.22;;;20.35;99.05
20015;BME280;61787;42.022;23.078;2023-06-14T01:17:19;96351.50;;;20.36;98.81
20015;BME280;61787;42.022;23.078;2023-06-14T01:18:22;96349.13;;;20.38;98.69
20015;BME280;61787;42.022;23.078;2023-06-14T01:19:25;96346.38;;;20.38;98.62
20015;BME280;61787;42.022;23.078;2023-06-14T01:20:31;96344.38;;;20.42;98.65
20015;BME280;61787;42.022;23.078;2023-06-14T01:21:33;96340.50;;;20.43;99.15
20015;BME280;61787;42.022;23.078;2023-06-14T01:22:53;96339.69;;;20.46;99.68
20015;BME280;61787;42.022;23.078;2023-06-14T01:23:55;96337.38;;;20.45;99.72
20015;BME280;61787;42.022;23.078;2023-06-14T01:24:56;96336.59;;;20.44;99.91
20015;BME280;61787;42.022;23.078;2023-06-14T01:26:00;96339.69;;;20.46;100.00
20015;BME280;61787;42.022;23.078;2023-06-14T01:27:05;96338.09;;;20.49;100.00
20015;BME280;61787;42.022;23.078;2023-06-14T01:28:08;96343.13;;;20.50;100.00
20015;BME280;61787;42.022;23.078;2023-06-14T01:29:14;96343.47;;;20.52;100.00
20015;BME280;61787;42.022;23.078;2023-06-14T01:30:20;96343.09;;;20.54;100.00
20015;BME280;61787;42.022;23.078;2023-06-14T01:31:23;96345.00;;;20.57;100.00
20015;BME280;61787;42.022;23.078;2023-06-14T01:32:26;96336.41;;;20.58;100.00
20015;BME280;61787;42.022;23.078;2023-06-14T01:33:28;96342.28;;;20.57;100.00
20015;BME280;61787;42.022;23.078;2023-06-14T01:34:31;96344.56;;;20.58;100.00
20015;BME280;61787;42.022;23.078;2023-06-14T01:35:33;96351.19;;;20.57;100.00
20015;BME280;61787;42.022;23.078;2023-06-14T01:36:36;96347.31;;;20.58;100.00
20015;BME280;61787;42.022;23.078;2023-06-14T01:37:43;96357.03;;;20.59;100.00
20015;BME280;61787;42.022;23.078;2023-06-14T01:38:45;96352.75;;;20.58;100.00
20015;BME280;61787;42.022;23.078;2023-06-14T01:39:48;96353.94;;;20.57;100.00
20015;BME280;61787;42.022;23.078;2023-06-14T01:40:53;96353.53;;;20.59;100.00
20015;BME280;61787;42.022;23.078;2023-06-14T01:41:55;96352.75;;;20.58;100.00
20015;BME280;61787;42.022;23.078;2023-06-14T01:42:59;96354.31;;;20.59;100.00
20015;BME280;61787;42.022;23.078;2023-06-14T01:44:01;96354.31;;;20.59;100.00
20015;BME280;61787;42.022;23.078;2023-06-14T01:45:05;96351.94;;;20.61;100.00
20015;BME280;61787;42.022;23.078;2023-06-14T01:46:08;96358.19;;;20.62;100.00
20015;BME280;61787;42.022;23.078;2023-06-14T01:47:10;96359.69;;;20.63;100.00
20015;BME280;61787;42.022;23.078;2023-06-14T01:48:13;96364.38;;;20.62;100.00
20015;BME280;61787;42.022;23.078;2023-06-14T01:49:15;96363.19;;;20.63;100.00
20015;BME280;61787;42.022;23.078;2023-06-14T01:50:19;96361.25;;;20.64;100.00
20015;BME280;61787;42.022;23.078;2023-06-14T01:51:21;96365.91;;;20.67;100.00
20015;BME280;61787;42.022;23.078;2023-06-14T01:52:23;96359.66;;;20.66;100.00
20015;BME280;61787;42.022;23.078;2023-06-14T01:53:25;96370.91;;;20.68;100.00
20015;BME280;61787;42.022;23.078;2023-06-14T01:54:27;96361.19;;;20.67;100.00
20015;BME280;61787;42.022;23.078;2023-06-14T01:55:30;96366.63;;;20.67;100.00
20015;BME280;61787;42.022;23.078;2023-06-14T01:56:38;96365.13;;;20.66;100.00
20015;BME280;61787;42.022;23.078;2023-06-14T01:57:40;96368.97;;;20.69;100.00
20015;BME280;61787;42.022;23.078;2023-06-14T01:58:42;96375.19;;;20.69;100.00
20015;BME280;61787;42.022;23.078;2023-06-14T01:59:43;96370.91;;;20.68;100.00
20015;BME280;61787;42.022;23.078;2023-06-14T02:00:49;96381.09;;;20.64;100.00
20015;BME280;61787;42.022;23.078;2023-06-14T02:01:52;96369.06;;;20.62;100.00
20015;BME280;61787;42.022;23.078;2023-06-14T02:02:54;96374.53;;;20.58;100.00
20015;BME280;61787;42.022;23.078;2023-06-14T02:03:55;96370.66;;;20.59;100.00
20015;BME280;61787;42.022;23.078;2023-06-14T02:04:57;96372.59;;;20.59;100.00
20015;BME280;61787;42.022;23.078;2023-06-14T02:05:59;96373.78;;;20.58;100.00
20015;BME280;61787;42.022;23.078;2023-06-14T02:07:01;96372.59;;;20.59;100.00
20015;BME280;61787;42.022;23.078;2023-06-14T02:08:03;96376.09;;;20.59;100.00
20015;BME280;61787;42.022;23.078;2023-06-14T02:09:05;96384.66;;;20.61;100.00
20015;BME280;61787;42.022;23.078;2023-06-14T02:10:07;96384.66;;;20.61;100.00
20015;BME280;61787;42.022;23.078;2023-06-14T02:11:08;96382.28;;;20.63;100.00
20015;BME280;61787;42.022;23.078;2023-06-14T02:12:10;96382.38;;;20.56;100.00
20015;BME280;61787;42.022;23.078;2023-06-14T02:13:13;96386.28;;;20.55;100.00
20015;BME280;61787;42.022;23.078;2023-06-14T02:14:14;96383.16;;;20.53;100.00
20015;BME280;61787;42.022;23.078;2023-06-14T02:15:18;96381.63;;;20.52;100.00
20015;BME280;61787;42.022;23.078;2023-06-14T02:16:21;96386.34;;;20.48;100.00
20015;BME280;61787;42.022;23.078;2023-06-14T02:17:24;96379.34;;;20.47;100.00
20015;BME280;61787;42.022;23.078;2023-06-14T02:18:26;96392.22;;;20.47;100.00
20015;BME280;61787;42.022;23.078;2023-06-14T02:19:28;96382.91;;;20.44;100.00
20015;BME280;61787;42.022;23.078;2023-06-14T02:20:30;96387.19;;;20.45;100.00
20015;BME280;61787;42.022;23.078;2023-06-14T02:21:32;96383.28;;;20.46;100.00
20015;BME280;61787;42.022;23.078;2023-06-14T02:22:33;96401.13;;;20.47;100.00
20015;BME280;61787;42.022;23.078;2023-06-14T02:23:35;96398.06;;;20.45;100.00
20015;BME280;61787;42.022;23.078;2023-06-14T02:24:37;96391.06;;;20.44;100.00
20015;BME280;61787;42.022;23.078;2023-06-14T02:25:38;96396.91;;;20.42;100.00
20015;BME280;61787;42.022;23.078;2023-06-14T02:26:41;96394.19;;;20.42;99.95
20015;BME280;61787;42.022;23.078;2023-06-14T02:27:43;96397.34;;;20.41;99.72
20015;BME280;61787;42.022;23.078;2023-06-14T02:28:45;96394.97;;;20.43;99.34
20015;BME280;61787;42.022;23.078;2023-06-14T02:29:46;96400.00;;;20.45;98.98
20015;BME280;61787;42.022;23.078;2023-06-14T02:30:48;96401.13;;;20.47;99.62
20015;BME280;61787;42.022;23.078;2023-06-14T02:31:50;96405.84;;;20.47;99.20
20015;BME280;61787;42.022;23.078;2023-06-14T02:32:51;96404.25;;;20.49;99.29
20015;BME280;61787;42.022;23.078;2023-06-14T02:33:54;96400.41;;;20.47;98.60
20015;BME280;61787;42.022;23.078;2023-06-14T02:34:56;96411.31;;;20.43;98.80
20015;BME280;61787;42.022;23.078;2023-06-14T02:35:58;96397.34;;;20.41;98.72
20015;BME280;61787;42.022;23.078;2023-06-14T02:37:00;96403.19;;;20.39;99.29
20015;BME280;61787;42.022;23.078;2023-06-14T02:38:04;96396.56;;;20.40;100.00
20015;BME280;61787;42.022;23.078;2023-06-14T02:39:05;96402.78;;;20.41;100.00
20015;BME280;61787;42.022;23.078;2023-06-14T02:40:07;96390.69;;;20.42;100.00
20015;BME280;61787;42.022;23.078;2023-06-14T02:41:10;96393.41;;;20.42;100.00
20015;BME280;61787;42.022;23.078;2023-06-14T02:42:12;96402.78;;;20.41;100.00
20015;BME280;61787;42.022;23.078;2023-06-14T02:43:13;96398.88;;;20.42;99.94
20015;BME280;61787;42.022;23.078;2023-06-14T02:44:17;96405.09;;;20.42;99.33
20015;BME280;61787;42.022;23.078;2023-06-14T02:45:19;96400.41;;;20.43;99.21
20015;BME280;61787;42.022;23.078;2023-06-14T02:46:22;96396.50;;;20.44;99.25
20015;BME280;61787;42.022;23.078;2023-06-14T02:47:24;96396.56;;;20.40;98.83
20015;BME280;61787;42.022;23.078;2023-06-14T02:48:27;96403.63;;;20.34;99.48
20015;BME280;61787;42.022;23.078;2023-06-14T02:49:28;96399.41;;;20.26;99.76
20015;BME280;61787;42.022;23.078;2023-06-14T02:50:31;96400.28;;;20.20;100.00
20015;BME280;61787;42.022;23.078;2023-06-14T02:51:33;96399.09;;;20.21;100.00
20015;BME280;61787;42.022;23.078;2023-06-14T02:52:35;96397.56;;;20.16;100.00
20015;BME280;61787;42.022;23.078;2023-06-14T02:53:36;96396.81;;;20.16;100.00
20015;BME280;61787;42.022;23.078;2023-06-14T02:54:38;96391.38;;;20.12;100.00
20015;BME280;61787;42.022;23.078;2023-06-14T02:55:40;96400.47;;;19.98;100.00
20015;BME280;61787;42.022;23.078;2023-06-14T02:56:42;96401.00;;;19.83;100.00
20015;BME280;61787;42.022;23.078;2023-06-14T02:57:43;96397.28;;;19.66;100.00
20015;BME280;61787;42.022;23.078;2023-06-14T02:58:45;96397.31;;;19.63;100.00
20015;BME280;61787;42.022;23.078;2023-06-14T02:59:47;96398.84;;;19.64;100.00
20015;BME280;61787;42.022;23.078;2023-06-14T03:00:49;96404.66;;;19.69;100.00
20015;BME280;61787;42.022;23.078;2023-06-14T03:01:51;96406.50;;;19.79;100.00
20015;BME280;61787;42.022;23.078;2023-06-14T03:02:52;96410.66;;;19.91;100.00
20015;BME280;61787;42.022;23.078;2023-06-14T03:03:56;96410.19;;;19.99;100.00
20015;BME280;61787;42.022;23.078;2023-06-14T03:04:58;96415.94;;;20.09;100.00
20015;BME280;61787;42.022;23.078;2023-06-14T03:06:02;96414.72;;;20.13;100.00
20015;BME280;61787;42.022;23.078;2023-06-14T03:07:05;96410.00;;;20.17;100.00
20015;BME280;61787;42.022;23.078;2023-06-14T03:08:13;96414.22;;;20.22;100.00
20015;BME280;61787;42.022;23.078;2023-06-14T03:09:21;96418.50;;;20.23;100.00
20015;BME280;61787;42.022;23.078;2023-06-14T03:10:22;96423.19;;;20.22;100.00
20015;BME280;61787;42.022;23.078;2023-06-14T03:11:24;96427.44;;;20.23;100.00
20015;BME280;61787;42.022;23.078;2023-06-14T03:12:26;96418.50;;;20.23;100.00
20015;BME280;61787;42.022;23.078;2023-06-14T03:13:28;96422.00;;;20.23;100.00
20015;BME280;61787;42.022;23.078;2023-06-14T03:14:33;96418.50;;;20.23;100.00
20015;BME280;61787;42.022;23.078;2023-06-14T03:15:36;96420.16;;;20.13;100.00
20015;BME280;61787;42.022;23.078;2023-06-14T03:16:38;96424.19;;;19.98;100.00
20015;BME280;61787;42.022;23.078;2023-06-14T03:17:39;96418.13;;;19.83;100.00
20015;BME280;61787;42.022;23.078;2023-06-14T03:18:42;96417.06;;;19.70;100.00
20015;BME280;61787;42.022;23.078;2023-06-14T03:19:43;96418.41;;;19.48;100.00
20015;BME280;61787;42.022;23.078;2023-06-14T03:20:45;96426.25;;;19.32;100.00
20015;BME280;61787;42.022;23.078;2023-06-14T03:21:47;96423.94;;;19.34;100.00
20015;BME280;61787;42.022;23.078;2023-06-14T03:22:49;96420.34;;;19.47;100.00
20015;BME280;61787;42.022;23.078;2023-06-14T03:23:50;96430.03;;;19.52;100.00
20015;BME280;61787;42.022;23.078;2023-06-14T03:24:52;96423.69;;;19.66;100.00
20015;BME280;61787;42.022;23.078;2023-06-14T03:25:55;96426.75;;;19.71;100.00
20015;BME280;61787;42.022;23.078;2023-06-14T03:26:57;96432.94;;;19.75;100.00
20015;BME280;61787;42.022;23.078;2023-06-14T03:27:59;96425.91;;;19.81;100.00
20015;BME280;61787;42.022;23.078;2023-06-14T03:29:01;96425.06;;;19.88;100.00
20015;BME280;61787;42.022;23.078;2023-06-14T03:30:03;96424.25;;;19.94;100.00
20015;BME280;61787;42.022;23.078;2023-06-14T03:31:05;96425.75;;;19.95;100.00
20015;BME280;61787;42.022;23.078;2023-06-14T03:32:07;96426.97;;;19.94;100.00
20015;BME280;61787;42.022;23.078;2023-06-14T03:33:09;96427.75;;;19.95;100.00
20015;BME280;61787;42.022;23.078;2023-06-14T03:34:11;96423.56;;;19.83;100.00
20015;BME280;61787;42.022;23.078;2023-06-14T03:35:12;96425.13;;;19.81;100.00
20015;BME280;61787;42.022;23.078;2023-06-14T03:36:18;96431.34;;;19.85;100.00
20015;BME280;61787;42.022;23.078;2023-06-14T03:37:20;96428.91;;;19.90;100.00
20015;BME280;61787;42.022;23.078;2023-06-14T03:38:22;96421.56;;;19.87;100.00
20015;BME280;61787;42.022;23.078;2023-06-14T03:39:23;96429.34;;;19.85;100.00
20015;BME280;61787;42.022;23.078;2023-06-14T03:40:25;96423.56;;;19.83;100.00
20015;BME280;61787;42.022;23.078;2023-06-14T03:41:28;96425.13;;;19.84;100.00
20015;BME280;61787;42.022;23.078;2023-06-14T03:42:30;96421.19;;;19.85;100.00
20015;BME280;61787;42.022;23.078;2023-06-14T03:43:31;96428.19;;;19.86;100.00
20015;BME280;61787;42.022;23.078;2023-06-14T03:44:33;96434.78;;;19.89;100.00
20015;BME280;61787;42.022;23.078;2023-06-14T03:45:35;96430.84;;;19.93;100.00
20015;BME280;61787;42.022;23.078;2023-06-14T03:46:38;96436.63;;;19.99;100.00
20015;BME280;61787;42.022;23.078;2023-06-14T03:47:39;96430.38;;;20.06;100.00
20015;BME280;61787;42.022;23.078;2023-06-14T03:48:41;96443.53;;;20.11;100.00
20015;BME280;61787;42.022;23.078;2023-06-14T03:49:43;96443.16;;;20.09;100.00
20015;BME280;61787;42.022;23.078;2023-06-14T03:50:44;96437.28;;;20.14;100.00
20015;BME280;61787;42.022;23.078;2023-06-14T03:51:46;96433.38;;;20.15;100.00
20015;BME280;61787;42.022;23.078;2023-06-14T03:52:53;96435.81;;;20.06;100.00
20015;BME280;61787;42.022;23.078;2023-06-14T03:53:54;96433.88;;;20.02;100.00
20015;BME280;61787;42.022;23.078;2023-06-14T03:55:17;96432.03;;;19.92;100.00
20015;BME280;61787;42.022;23.078;2023-06-14T03:56:21;96432.03;;;19.92;100.00
20015;BME280;61787;42.022;23.078;2023-06-14T03:57:23;96432.81;;;19.93;100.00
20015;BME280;61787;42.022;23.078;2023-06-14T03:58:25;96435.13;;;19.91;100.00
20015;BME280;61787;42.022;23.078;2023-06-14T03:59:26;96438.28;;;19.89;100.00
20015;BME280;61787;42.022;23.078;2023-06-14T04:00:28;96441.78;;;19.90;100.00
20015;BME280;61787;42.022;23.078;2023-06-14T04:01:29;96444.09;;;19.91;100.00
20015;BME280;61787;42.022;23.078;2023-06-14T04:02:32;96438.19;;;19.96;100.00
20015;BME280;61787;42.022;23.078;2023-06-14T04:03:34;96438.19;;;19.96;100.00
20015;BME280;61787;42.022;23.078;2023-06-14T04:04:36;96435.91;;;19.95;100.00
20015;BME280;61787;42.022;23.078;2023-06-14T04:05:38;96435.88;;;19.98;100.00
20015;BME280;61787;42.022;23.078;2023-06-14T04:06:43;96433.56;;;19.93;100.00
20015;BME280;61787;42.022;23.078;2023-06-14T04:07:45;96430.56;;;19.84;100.00
20015;BME280;61787;42.022;23.078;2023-06-14T04:08:47;96429.00;;;19.83;100.00
20015;BME280;61787;42.022;23.078;2023-06-14T04:09:50;96436.34;;;19.86;100.00
20015;BME280;61787;42.022;23.078;2023-06-14T04:10:52;96434.00;;;19.88;100.00
20015;BME280;61787;42.022;23.078;2023-06-14T04:11:54;96432.06;;;19.85;100.00
20015;BME280;61787;42.022;23.078;2023-06-14T04:12:56;96424.34;;;19.80;100.00
20015;BME280;61787;42.022;23.078;2023-06-14T04:13:58;96429.06;;;19.76;100.00
20015;BME280;61787;42.022;23.078;2023-06-14T04:15:00;96422.91;;;19.69;100.00
20015;BME280;61787;42.022;23.078;2023-06-14T04:16:19;96426.06;;;19.60;100.00
20015;BME280;61787;42.022;23.078;2023-06-14T04:17:22;96420.72;;;19.49;100.00
20015;BME280;61787;42.022;23.078;2023-06-14T04:18:24;96422.25;;;19.50;100.00
20015;BME280;61787;42.022;23.078;2023-06-14T04:19:25;96425.41;;;19.49;100.00
20015;BME280;61787;42.022;23.078;2023-06-14T04:20:27;96426.16;;;19.49;100.00
20015;BME280;61787;42.022;23.078;2023-06-14T04:21:30;96420.66;;;19.56;100.00
20015;BME280;61787;42.022;23.078;2023-06-14T04:22:35;96419.84;;;19.63;100.00
20015;BME280;61787;42.022;23.078;2023-06-14T04:23:42;96422.19;;;19.65;100.00
20015;BME280;61787;42.022;23.078;2023-06-14T04:24:45;96426.06;;;19.64;100.00
20015;BME280;61787;42.022;23.078;2023-06-14T04:25:57;96423.69;;;19.69;100.00
20015;BME280;61787;42.022;23.078;2023-06-14T04:27:04;96419.81;;;19.67;100.00
20015;BME280;61787;42.022;23.078;2023-06-14T04:28:06;96422.88;;;19.72;100.00
20015;BME280;61787;42.022;23.078;2023-06-14T04:29:14;96418.16;;;19.76;100.00
20015;BME280;61787;42.022;23.078;2023-06-14T04:30:18;96424.34;;;19.80;100.00
20015;BME280;61787;42.022;23.078;2023-06-14T04:31:19;96422.38;;;19.84;100.00
20015;BME280;61787;42.022;23.078;2023-06-14T04:32:26;96418.16;;;19.76;100.00
20015;BME280;61787;42.022;23.078;2023-06-14T04:33:28;96418.28;;;19.62;100.00
20015;BME280;61787;42.022;23.078;2023-06-14T04:34:29;96419.03;;;19.66;100.00
20015;BME280;61787;42.022;23.078;2023-06-14T04:35:36;96426.75;;;19.75;100.00
20015;BME280;61787;42.022;23.078;2023-06-14T04:36:38;96421.63;;;19.80;100.00
20015;BME280;61787;42.022;23.078;2023-06-14T04:37:40;96430.91;;;19.86;100.00
20015;BME280;61787;42.022;23.078;2023-06-14T04:38:44;96435.03;;;20.01;100.00
20015;BME280;61787;42.022;23.078;2023-06-14T04:39:48;96435.00;;;20.09;100.00
20015;BME280;61787;42.022;23.078;2023-06-14T04:40:53;96438.00;;;20.18;100.00
20015;BME280;61787;42.022;23.078;2023-06-14T04:41:54;96434.78;;;20.26;100.00
20015;BME280;61787;42.022;23.078;2023-06-14T04:42:59;96438.25;;;20.34;100.00
20015;BME280;61787;42.022;23.078;2023-06-14T04:44:01;96440.16;;;20.40;100.00
20015;BME280;61787;42.022;23.078;2023-06-14T04:45:03;96445.53;;;20.44;100.00
20015;BME280;61787;42.022;23.078;2023-06-14T04:46:05;96442.31;;;20.56;100.00
20015;BME280;61787;42.022;23.078;2023-06-14T04:47:13;96441.84;;;20.61;100.00
20015;BME280;61787;42.022;23.078;2023-06-14T04:48:15;96436.59;;;20.77;100.00
20015;BME280;61787;42.022;23.078;2023-06-14T04:49:19;96437.28;;;20.85;100.00
20015;BME280;61787;42.022;23.078;2023-06-14T04:50:21;96439.41;;;21.01;100.00
20015;BME280;61787;42.022;23.078;2023-06-14T04:51:23;96441.59;;;21.13;100.00
20015;BME280;61787;42.022;23.078;2023-06-14T04:52:30;96442.34;;;21.17;100.00
20015;BME280;61787;42.022;23.078;2023-06-14T04:53:33;96449.59;;;21.27;98.81
20015;BME280;61787;42.022;23.078;2023-06-14T04:54:36;96449.16;;;21.32;98.29
20015;BME280;61787;42.022;23.078;2023-06-14T04:55:44;96449.03;;;21.39;97.83
20015;BME280;61787;42.022;23.078;2023-06-14T04:56:46;96452.84;;;21.45;97.04
20015;BME280;61787;42.022;23.078;2023-06-14T04:57:48;96452.75;;;21.52;96.70
20015;BME280;61787;42.022;23.078;2023-06-14T04:58:50;96460.09;;;21.55;96.38
20015;BME280;61787;42.022;23.078;2023-06-14T04:59:52;96453.59;;;21.49;95.94
20015;BME280;61787;42.022;23.078;2023-06-14T05:00:59;96460.94;;;21.52;96.02
20015;BME280;61787;42.022;23.078;2023-06-14T05:02:01;96461.25;;;21.58;95.30
20015;BME280;61787;42.022;23.078;2023-06-14T05:03:03;96458.81;;;21.63;95.48
20015;BME280;61787;42.022;23.078;2023-06-14T05:04:07;96452.47;;;21.70;95.19
20015;BME280;61787;42.022;23.078;2023-06-14T05:05:09;96450.69;;;21.83;95.13
20015;BME280;61787;42.022;23.078;2023-06-14T05:06:11;96447.41;;;21.95;93.33
20015;BME280;61787;42.022;23.078;2023-06-14T05:07:13;96450.31;;;22.08;93.13
20015;BME280;61787;42.022;23.078;2023-06-14T05:08:15;96450.81;;;22.23;90.97
20015;BME280;61787;42.022;23.078;2023-06-14T05:09:17;96452.00;;;22.22;89.79
20015;BME280;61787;42.022;23.078;2023-06-14T05:10:19;96448.88;;;22.23;88.95
20015;BME280;61787;42.022;23.078;2023-06-14T05:11:21;96453.78;;;22.32;88.80
20015;BME280;61787;42.022;23.078;2023-06-14T05:12:25;96458.22;;;22.45;88.93
20015;BME280;61787;42.022;23.078;2023-06-14T05:13:27;96458.56;;;22.47;86.99
20015;BME280;61787;42.022;23.078;2023-06-14T05:14:29;96466.63;;;22.54;87.54
20015;BME280;61787;42.022;23.078;2023-06-14T05:15:31;96462.84;;;22.68;87.78
20015;BME280;61787;42.022;23.078;2023-06-14T05:16:33;96464.63;;;22.78;86.51
20015;BME280;61787;42.022;23.078;2023-06-14T05:17:35;96469.19;;;22.85;86.54
20015;BME280;61787;42.022;23.078;2023-06-14T05:18:37;96467.84;;;22.93;85.17
20015;BME280;61787;42.022;23.078;2023-06-14T05:19:39;96474.59;;;23.08;84.21
20015;BME280;61787;42.022;23.078;2023-06-14T05:20:42;96470.88;;;23.18;82.10
20015;BME280;61787;42.022;23.078;2023-06-14T05:21:44;96471.56;;;23.22;81.79
20015;BME280;61787;42.022;23.078;2023-06-14T05:22:46;96474.28;;;23.22;81.81
20015;BME280;61787;42.022;23.078;2023-06-14T05:23:47;96475.97;;;23.16;81.63
20015;BME280;61787;42.022;23.078;2023-06-14T05:24:49;96478.84;;;23.09;81.01
20015;BME280;61787;42.022;23.078;2023-06-14T05:25:51;96464.91;;;23.04;81.50
20015;BME280;61787;42.022;23.078;2023-06-14T05:26:53;96472.69;;;23.05;82.07
20015;BME280;61787;42.022;23.078;2023-06-14T05:27:54;96469.88;;;23.09;81.19
20015;BME280;61787;42.022;23.078;2023-06-14T05:28:57;96476.56;;;23.08;80.29
20015;BME280;61787;42.022;23.078;2023-06-14T05:29:58;96471.16;;;23.04;79.43
20015;BME280;61787;42.022;23.078;2023-06-14T05:31:00;96477.59;;;22.94;80.51